Terminal Aerodrome Forecast
Issued by NWS

Home | Current Version | Previous Version | Graphics & Text | Print | Product List | Glossary On
Versions: 1 2 3 4 5 6 7 8 9 10 11 12
572
FTUS42 KMHX 230520
TAFOAJ
TAF
KOAJ 230520Z 2306/2406 03005KT P6SM SKC
     FM231300 03011KT P6SM FEW250
     FM232300 VRB03KT P6SM SKC
      AMD LTD TO CLD VIS AND WIND=

USA.gov is the U.S. government's official web portal to all federal, state and local government web resources and services.